Time;durP1;ratioP1;P1;durP2;ratioP2;P2;SDS_P1;SDS_P2;PMS_P1;PMS_P2;Temp;Humidity;BMP_temperature;BMP_pressure;BME280_temperature;BME280_humidity;BME280_pressure;Samples;Min_cycle;Max_cycle;Signal;HPM_P1;HPM_P2
2021/06/26 00:01:00;;;;;;;59.93;48.03;;;16.40;94.10;;;;;;5052860;28;20053;-64
2021/06/26 00:03:28;;;;;;;42.73;36.27;;;16.50;94.20;;;;;;5053199;28;20041;-64
2021/06/26 00:05:55;;;;;;;40.07;34.27;;;16.40;94.10;;;;;;5052244;28;20060;-64
2021/06/26 00:08:22;;;;;;;58.83;48.30;;;16.40;94.20;;;;;;5052512;28;20045;-64
2021/06/26 00:10:49;;;;;;;59.63;47.83;;;16.30;94.30;;;;;;5052833;28;20098;-64
2021/06/26 00:13:15;;;;;;;61.83;49.37;;;16.30;94.30;;;;;;5051883;28;20103;-64
2021/06/26 00:15:42;;;;;;;62.00;48.53;;;16.30;94.40;;;;;;5052726;28;20045;-64
2021/06/26 00:18:08;;;;;;;61.17;47.60;;;16.30;94.40;;;;;;5052428;28;20414;-63
2021/06/26 00:20:33;;;;;;;49.00;39.67;;;16.30;94.50;;;;;;5051881;28;20053;-63
2021/06/26 00:22:59;;;;;;;59.10;45.43;;;16.20;94.50;;;;;;5052087;28;20099;-64
2021/06/26 00:25:25;;;;;;;61.77;49.27;;;16.20;94.50;;;;;;5051929;28;20049;-64
2021/06/26 00:27:52;;;;;;;68.60;51.77;;;16.20;94.60;;;;;;5052938;28;20060;-64
2021/06/26 00:30:19;;;;;;;68.20;51.27;;;16.20;94.70;;;;;;5052123;28;20082;-64
2021/06/26 00:32:45;;;;;;;62.17;47.80;;;16.20;94.70;;;;;;5051680;28;20917;-63
2021/06/26 00:35:11;;;;;;;65.03;50.20;;;16.10;94.70;;;;;;5051950;28;20463;-63
2021/06/26 00:37:38;;;;;;;65.77;50.60;;;16.10;94.80;;;;;;5034384;28;20093;-63
2021/06/26 00:40:07;;;;;;;62.40;48.73;;;16.20;94.80;;;;;;5051232;28;20060;-64
2021/06/26 00:42:35;;;;;;;64.50;49.13;;;16.10;94.80;;;;;;5052273;28;20449;-63
2021/06/26 00:45:00;;;;;;;69.17;50.93;;;16.10;94.90;;;;;;5051680;28;20099;-64
2021/06/26 00:47:26;;;;;;;63.23;47.80;;;16.10;94.90;;;;;;5051429;28;20087;-63
2021/06/26 00:49:52;;;;;;;65.90;49.40;;;16.10;95.00;;;;;;5051101;28;20060;-64
2021/06/26 00:52:18;;;;;;;65.10;49.43;;;16.10;95.00;;;;;;5052011;28;20056;-64
2021/06/26 00:54:45;;;;;;;56.47;45.47;;;16.10;95.10;;;;;;5051452;28;20053;-63
2021/06/26 00:57:11;;;;;;;59.13;45.07;;;16.10;95.10;;;;;;5051695;28;20403;-64
2021/06/26 00:59:37;;;;;;;60.10;48.53;;;16.00;95.10;;;;;;5051980;28;20127;-64
2021/06/26 01:02:04;;;;;;;53.53;42.03;;;16.10;95.20;;;;;;5050946;28;20520;-63
2021/06/26 01:04:30;;;;;;;52.53;42.97;;;16.10;95.20;;;;;;5033721;28;20045;-64
2021/06/26 01:06:56;;;;;;;49.60;38.50;;;16.10;95.30;;;;;;5051935;28;20053;-64
2021/06/26 01:09:21;;;;;;;56.63;45.37;;;16.10;95.30;;;;;;5050594;28;20088;-64
2021/06/26 01:11:48;;;;;;;55.63;43.87;;;16.10;95.40;;;;;;5051650;28;20059;-63
2021/06/26 01:14:14;;;;;;;50.93;39.10;;;16.10;95.40;;;;;;5051312;28;20053;-65
2021/06/26 01:16:40;;;;;;;56.23;45.67;;;16.10;95.40;;;;;;5050864;28;20143;-64
2021/06/26 01:19:05;;;;;;;61.80;47.27;;;16.10;95.40;;;;;;5051032;28;20117;-63
2021/06/26 01:21:35;;;;;;;58.17;44.63;;;16.20;95.40;;;;;;5051736;28;20041;-64
2021/06/26 01:24:01;;;;;;;58.00;46.13;;;16.20;95.30;;;;;;5050558;28;20049;-64
2021/06/26 01:26:31;;;;;;;61.40;48.53;;;16.20;95.30;;;;;;5051525;28;20102;-64
2021/06/26 01:28:58;;;;;;;59.10;47.60;;;16.20;95.20;;;;;;5050579;28;20045;-64
2021/06/26 01:31:23;;;;;;;59.20;46.00;;;16.20;95.20;;;;;;5051060;28;20053;-64
2021/06/26 01:33:49;;;;;;;51.97;41.47;;;16.20;95.30;;;;;;5051412;28;20045;-64
2021/06/26 01:36:14;;;;;;;55.50;43.73;;;16.20;95.20;;;;;;5050438;28;20068;-64
2021/06/26 01:38:40;;;;;;;58.80;46.27;;;16.20;95.70;;;;;;5051371;28;20056;-64
2021/06/26 01:41:06;;;;;;;63.80;49.60;;;16.20;95.30;;;;;;5051067;28;20508;-64
2021/06/26 01:43:31;;;;;;;58.83;47.27;;;16.20;95.30;;;;;;5050432;28;20163;-64
2021/06/26 01:45:57;;;;;;;59.17;48.27;;;16.30;95.30;;;;;;5051072;28;20048;-64
2021/06/26 01:48:23;;;;;;;62.90;48.77;;;16.30;95.30;;;;;;5051253;28;20056;-64
2021/06/26 01:50:48;;;;;;;63.07;49.67;;;16.30;95.30;;;;;;5050477;28;20049;-64
2021/06/26 01:53:18;;;;;;;60.73;48.47;;;16.30;95.20;;;;;;5050920;28;20045;-64
2021/06/26 01:55:43;;;;;;;62.63;50.07;;;16.30;95.20;;;;;;5051082;28;20123;-64
2021/06/26 01:58:09;;;;;;;58.33;49.03;;;16.30;95.10;;;;;;5050011;28;20044;-64
2021/06/26 02:00:35;;;;;;;61.90;49.77;;;16.30;95.10;;;;;;5050780;28;20040;-64
2021/06/26 02:03:01;;;;;;;61.53;50.10;;;16.30;95.10;;;;;;5050813;28;20041;-64
2021/06/26 02:05:26;;;;;;;59.20;49.27;;;16.30;95.10;;;;;;5050324;28;20131;-64
2021/06/26 02:07:52;;;;;;;61.30;49.97;;;16.30;95.10;;;;;;5051129;28;20040;-64
2021/06/26 02:10:18;;;;;;;59.73;48.73;;;16.30;95.10;;;;;;5050649;28;20080;-64
2021/06/26 02:12:45;;;;;;;61.93;49.70;;;16.30;95.20;;;;;;5050157;28;20049;-64
2021/06/26 02:15:11;;;;;;;60.90;50.00;;;16.30;95.20;;;;;;5050635;28;20435;-64
2021/06/26 02:17:37;;;;;;;61.10;48.73;;;16.30;95.20;;;;;;5051105;28;20128;-64
2021/06/26 02:20:09;;;;;;;61.63;50.63;;;16.30;95.20;;;;;;5050129;28;20090;-64
2021/06/26 02:22:35;;;;;;;57.53;45.47;;;16.30;95.20;;;;;;5051065;28;20045;-64
2021/06/26 02:25:04;;;;;;;58.80;47.33;;;16.40;95.20;;;;;;5049925;28;20056;-64
2021/06/26 02:27:30;;;;;;;52.63;43.47;;;16.40;95.20;;;;;;5050812;28;20061;-64
2021/06/26 02:29:56;;;;;;;59.43;47.67;;;16.40;95.10;;;;;;5050536;28;20082;-64
2021/06/26 02:32:21;;;;;;;55.90;47.63;;;16.40;95.10;;;;;;5049819;28;20131;-64
2021/06/26 02:34:47;;;;;;;57.17;46.43;;;16.40;95.10;;;;;;5051046;28;20045;-64
2021/06/26 02:37:13;;;;;;;57.00;48.30;;;16.40;95.10;;;;;;5050540;28;20048;-64
2021/06/26 02:39:38;;;;;;;58.53;48.27;;;16.40;95.10;;;;;;5050109;28;20087;-64
2021/06/26 02:42:04;;;;;;;45.73;38.63;;;16.40;95.10;;;;;;5050467;28;20073;-64
2021/06/26 02:44:30;;;;;;;59.43;49.87;;;16.50;95.10;;;;;;5050297;28;20466;-64
2021/06/26 02:46:56;;;;;;;46.07;39.67;;;16.50;95.00;;;;;;5050031;28;20049;-64
2021/06/26 02:49:21;;;;;;;58.93;48.30;;;16.50;95.00;;;;;;5050326;28;20124;-63
2021/06/26 02:51:48;;;;;;;39.93;34.87;;;16.50;95.10;;;;;;5050200;28;20052;-63
2021/06/26 02:54:14;;;;;;;49.43;39.33;;;16.50;95.10;;;;;;5049389;28;20049;-64
2021/06/26 02:56:40;;;;;;;39.70;35.13;;;16.50;95.10;;;;;;5050372;28;20049;-64
2021/06/26 02:59:05;;;;;;;62.93;49.43;;;16.40;95.00;;;;;;5049916;28;20076;-64
2021/06/26 03:01:31;;;;;;;60.53;48.00;;;16.40;95.10;;;;;;5049733;28;20055;-64
2021/06/26 03:03:57;;;;;;;54.73;45.57;;;16.50;95.20;;;;;;5050420;28;20045;-64
2021/06/26 03:06:22;;;;;;;56.00;46.80;;;16.50;95.20;;;;;;5050371;28;20128;-64
2021/06/26 03:08:48;;;;;;;52.07;43.87;;;16.40;95.10;;;;;;5049568;28;20132;-64
2021/06/26 03:11:14;;;;;;;53.70;46.30;;;16.50;95.10;;;;;;5049822;28;20428;-64
2021/06/26 03:13:40;;;;;;;56.47;46.47;;;16.50;95.00;;;;;;5053171;28;20045;-64
2021/06/26 03:16:05;;;;;;;60.83;50.60;;;16.50;95.00;;;;;;5053323;28;20060;-64
2021/06/26 03:18:31;;;;;;;51.70;42.50;;;16.60;95.00;;;;;;5053892;28;20051;-64
2021/06/26 03:20:57;;;;;;;55.80;47.17;;;16.60;94.90;;;;;;5054102;28;20136;-64
2021/06/26 03:23:22;;;;;;;46.70;40.50;;;16.60;94.90;;;;;;5053061;28;20110;-64
2021/06/26 03:25:48;;;;;;;50.93;41.27;;;16.60;94.90;;;;;;5053589;28;20052;-64
2021/06/26 03:28:14;;;;;;;47.37;38.97;;;16.50;94.90;;;;;;5052804;28;20053;-64
2021/06/26 03:30:39;;;;;;;46.20;37.50;;;16.50;95.00;;;;;;5053658;28;20049;-64
2021/06/26 03:33:05;;;;;;;50.63;43.53;;;16.50;95.00;;;;;;5053366;28;20481;-64
2021/06/26 03:35:31;;;;;;;51.27;40.73;;;16.50;95.00;;;;;;5052872;28;20136;-64
2021/06/26 03:37:57;;;;;;;61.27;48.60;;;16.50;95.50;;;;;;5053631;28;20060;-64
2021/06/26 03:40:23;;;;;;;51.00;42.83;;;16.50;95.10;;;;;;5053321;28;20049;-64
2021/06/26 03:42:48;;;;;;;52.50;44.77;;;16.50;95.10;;;;;;5052529;28;20045;-64
2021/06/26 03:45:14;;;;;;;52.70;43.40;;;16.50;95.10;;;;;;5053173;28;20052;-64
2021/06/26 03:47:39;;;;;;;54.47;45.73;;;16.50;95.10;;;;;;5053526;28;20219;-64
2021/06/26 03:50:06;;;;;;;59.67;46.30;;;16.60;95.10;;;;;;5034308;28;20045;-64
2021/06/26 03:52:32;;;;;;;47.20;38.23;;;16.50;95.10;;;;;;5053250;28;20555;-64
2021/06/26 03:55:18;;;;;;;54.60;46.10;;;16.60;95.10;;;;;;5038464;28;20460;-64
2021/06/26 03:57:43;;;;;;;54.93;47.00;;;16.60;95.10;;;;;;5052663;28;20052;-64
2021/06/26 04:00:10;;;;;;;55.90;45.87;;;16.60;95.10;;;;;;5053110;28;20367;-64
2021/06/26 04:02:36;;;;;;;58.20;46.63;;;16.60;95.10;;;;;;5053236;28;20152;-64
2021/06/26 04:05:03;;;;;;;58.30;49.03;;;16.60;95.00;;;;;;5052135;28;20049;-64
2021/06/26 04:07:29;;;;;;;57.57;48.43;;;16.60;95.00;;;;;;5053011;28;20048;-64
2021/06/26 04:09:54;;;;;;;61.13;45.73;;;16.60;94.90;;;;;;5052803;28;20045;-64
2021/06/26 04:12:20;;;;;;;58.60;47.53;;;16.70;94.90;;;;;;5051984;28;20095;-64
2021/06/26 04:14:46;;;;;;;53.77;46.10;;;16.70;94.80;;;;;;5053056;28;20416;-64
2021/06/26 04:17:12;;;;;;;60.53;49.13;;;16.80;94.80;;;;;;5052281;28;20049;-64
2021/06/26 04:19:43;;;;;;;59.13;46.93;;;16.80;94.70;;;;;;5051903;28;20075;-64
2021/06/26 04:22:09;;;;;;;50.37;42.23;;;16.70;94.70;;;;;;5052371;28;20040;-64
2021/06/26 04:24:35;;;;;;;55.27;46.13;;;16.70;94.60;;;;;;5050872;28;20045;-64
2021/06/26 04:27:00;;;;;;;54.97;48.10;;;16.80;94.60;;;;;;5052326;28;20159;-64
2021/06/26 04:29:27;;;;;;;54.83;47.80;;;16.80;94.60;;;;;;5052367;28;20059;-64
2021/06/26 04:31:53;;;;;;;58.63;46.13;;;16.80;94.50;;;;;;5051503;28;20970;-64
2021/06/26 04:34:19;;;;;;;53.87;46.90;;;16.80;94.50;;;;;;5052135;28;20052;-64
2021/06/26 04:36:45;;;;;;;51.93;45.73;;;16.80;94.50;;;;;;5051971;28;20052;-64
2021/06/26 04:39:11;;;;;;;56.20;47.87;;;16.80;94.50;;;;;;5051049;28;20051;-64
2021/06/26 04:41:38;;;;;;;56.77;48.10;;;16.80;94.50;;;;;;5052060;28;20049;-64
2021/06/26 04:44:04;;;;;;;54.00;46.80;;;16.80;94.40;;;;;;5051624;28;20140;-64
2021/06/26 04:46:31;;;;;;;55.23;48.70;;;16.80;94.50;;;;;;5051371;28;20050;-64
2021/06/26 04:48:57;;;;;;;52.23;44.87;;;16.80;94.50;;;;;;5051937;28;20044;-64
2021/06/26 04:51:23;;;;;;;54.90;45.67;;;16.80;94.40;;;;;;5051928;28;20065;-64
2021/06/26 04:53:50;;;;;;;54.77;48.30;;;16.80;94.40;;;;;;5051553;28;20045;-64
2021/06/26 04:56:15;;;;;;;54.03;45.73;;;16.80;94.40;;;;;;5051892;28;20059;-64
2021/06/26 04:58:41;;;;;;;52.43;44.93;;;16.90;94.40;;;;;;5051943;28;20401;-64
2021/06/26 05:01:07;;;;;;;59.53;48.03;;;16.90;94.40;;;;;;5050781;28;20516;-63
2021/06/26 05:03:32;;;;;;;55.77;48.40;;;16.90;94.30;;;;;;5051945;28;20080;-63
2021/06/26 05:06:00;;;;;;;53.87;45.53;;;16.90;94.40;;;;;;5051458;28;20615;-64
2021/06/26 05:08:26;;;;;;;54.03;46.00;;;16.90;94.40;;;;;;5050799;28;20474;-64
2021/06/26 05:10:52;;;;;;;52.33;44.23;;;16.90;94.40;;;;;;5051888;28;20077;-64
2021/06/26 05:13:18;;;;;;;48.73;40.27;;;16.90;94.40;;;;;;5051426;28;20110;-64
2021/06/26 05:15:44;;;;;;;56.03;46.13;;;16.90;94.40;;;;;;5051128;28;20072;-64
2021/06/26 05:18:11;;;;;;;55.03;45.30;;;16.90;94.50;;;;;;5051354;28;20435;-64
2021/06/26 05:20:37;;;;;;;53.80;47.17;;;17.00;94.50;;;;;;5051626;28;20067;-64
2021/06/26 05:23:14;;;;;;;51.07;45.00;;;17.00;94.50;;;;;;5050680;28;20106;-64
2021/06/26 05:25:40;;;;;;;50.63;44.17;;;17.10;94.40;;;;;;5051622;28;20075;-64
2021/06/26 05:28:05;;;;;;;50.50;42.13;;;17.10;94.40;;;;;;5050654;28;20144;-64
2021/06/26 05:30:31;;;;;;;49.57;43.53;;;17.20;94.40;;;;;;5051385;28;20167;-65
2021/06/26 05:32:57;;;;;;;51.60;43.47;;;17.20;94.20;;;;;;5051237;28;20063;-64
2021/06/26 05:35:22;;;;;;;52.97;42.87;;;17.30;94.10;;;;;;5050437;28;20073;-64
2021/06/26 05:37:48;;;;;;;52.87;44.10;;;17.30;94.10;;;;;;5051416;28;20497;-64
2021/06/26 05:40:14;;;;;;;53.70;46.27;;;17.40;94.00;;;;;;5050983;28;20053;-64
2021/06/26 05:42:40;;;;;;;56.90;44.27;;;17.40;94.00;;;;;;5050689;28;20045;-64
2021/06/26 05:45:06;;;;;;;54.83;44.50;;;17.40;93.90;;;;;;5050627;28;20409;-64
2021/06/26 05:47:31;;;;;;;52.47;45.10;;;17.50;93.90;;;;;;5051274;28;20124;-64
2021/06/26 05:49:57;;;;;;;52.97;44.47;;;17.50;93.80;;;;;;5050251;28;20454;-64
2021/06/26 05:52:23;;;;;;;50.17;42.67;;;17.50;93.80;;;;;;5051107;28;20053;-64
2021/06/26 05:54:49;;;;;;;47.90;40.97;;;17.50;93.80;;;;;;5051313;28;20182;-64
2021/06/26 05:57:14;;;;;;;53.07;46.03;;;17.60;93.80;;;;;;5050180;28;20048;-64
2021/06/26 05:59:40;;;;;;;57.63;46.20;;;17.60;93.80;;;;;;5050434;28;20194;-63
2021/06/26 06:02:12;;;;;;;48.53;40.50;;;17.60;93.70;;;;;;5049649;28;20041;-64
2021/06/26 06:04:38;;;;;;;52.53;41.53;;;17.60;93.60;;;;;;5050159;28;20049;-64
2021/06/26 06:07:03;;;;;;;52.93;42.47;;;17.60;93.60;;;;;;5050435;28;20045;-64
2021/06/26 06:09:29;;;;;;;50.37;41.87;;;17.60;93.60;;;;;;5051014;28;20418;-64
2021/06/26 06:11:54;;;;;;;49.10;41.53;;;17.60;93.50;;;;;;5049855;28;20067;-64
2021/06/26 06:14:20;;;;;;;58.67;46.03;;;17.70;93.50;;;;;;5050580;28;20415;-65
2021/06/26 06:16:46;;;;;;;47.47;38.80;;;17.70;93.50;;;;;;5050448;28;20049;-64
2021/06/26 06:19:12;;;;;;;51.10;41.83;;;17.70;93.40;;;;;;5049888;28;20556;-65
2021/06/26 06:21:37;;;;;;;55.40;46.27;;;17.80;93.40;;;;;;5050409;28;20131;-64
2021/06/26 06:24:03;;;;;;;49.97;41.13;;;17.80;93.40;;;;;;5050305;28;20111;-64
2021/06/26 06:26:32;;;;;;;58.70;46.97;;;17.80;93.30;;;;;;5050591;28;20049;-64
2021/06/26 06:28:57;;;;;;;49.43;41.67;;;17.90;93.20;;;;;;5050455;28;20060;-64
2021/06/26 06:31:23;;;;;;;41.37;36.20;;;17.90;93.10;;;;;;5049513;28;20049;-64
2021/06/26 06:33:49;;;;;;;54.07;45.73;;;18.00;93.20;;;;;;5050830;28;20052;-64
2021/06/26 06:36:14;;;;;;;55.90;44.93;;;18.00;93.10;;;;;;5050080;28;20072;-65
2021/06/26 06:38:40;;;;;;;53.20;45.33;;;18.00;93.00;;;;;;5049744;28;20441;-66
2021/06/26 06:41:05;;;;;;;51.13;43.30;;;18.10;92.90;;;;;;5049840;28;20049;-65
2021/06/26 06:43:31;;;;;;;49.00;43.63;;;18.10;92.80;;;;;;5050378;28;20060;-64
2021/06/26 06:45:57;;;;;;;53.63;45.10;;;18.20;92.80;;;;;;5049271;28;20091;-65
2021/06/26 06:48:22;;;;;;;47.60;42.50;;;18.30;92.70;;;;;;5053167;28;20134;-64
2021/06/26 06:50:48;;;;;;;46.90;40.13;;;18.40;92.40;;;;;;5054020;28;20057;-64
2021/06/26 06:53:14;;;;;;;41.43;36.83;;;18.50;92.20;;;;;;5053199;28;20114;-64
2021/06/26 06:55:39;;;;;;;48.10;42.10;;;18.50;92.10;;;;;;5053829;28;20068;-64
2021/06/26 06:58:05;;;;;;;44.53;39.83;;;18.60;91.90;;;;;;5053688;28;20060;-64
2021/06/26 07:00:31;;;;;;;47.27;39.37;;;18.60;91.60;;;;;;5053235;28;20214;-64
2021/06/26 07:02:56;;;;;;;46.27;41.00;;;18.60;91.30;;;;;;5053597;28;20405;-64
2021/06/26 07:05:22;;;;;;;45.70;39.80;;;18.70;91.30;;;;;;5053730;28;20128;-64
2021/06/26 07:07:48;;;;;;;45.43;40.43;;;18.70;91.30;;;;;;5052909;28;20123;-64
2021/06/26 07:10:13;;;;;;;46.93;38.43;;;18.70;91.10;;;;;;5053864;28;20152;-64
2021/06/26 07:12:39;;;;;;;43.77;38.00;;;18.70;91.00;;;;;;5053702;28;20569;-64
2021/06/26 07:15:06;;;;;;;44.27;39.03;;;18.80;90.80;;;;;;5052994;28;20056;-64
2021/06/26 07:17:32;;;;;;;38.97;34.77;;;18.80;90.60;;;;;;5053521;28;20053;-64
2021/06/26 07:19:57;;;;;;;40.47;36.27;;;18.80;90.50;;;;;;5053829;28;20115;-64
2021/06/26 07:22:23;;;;;;;39.97;34.50;;;18.90;90.20;;;;;;5052990;28;20397;-63
2021/06/26 07:24:49;;;;;;;41.57;36.63;;;19.00;89.80;;;;;;5053613;28;20064;-64
2021/06/26 07:27:14;;;;;;;43.27;35.27;;;19.00;89.50;;;;;;5052925;28;20052;-64
2021/06/26 07:29:40;;;;;;;39.77;34.53;;;19.00;89.10;;;;;;5052723;28;20049;-63
2021/06/26 07:32:06;;;;;;;40.53;36.23;;;19.10;88.70;;;;;;5052825;28;20477;-65
2021/06/26 07:34:32;;;;;;;39.77;35.53;;;19.10;88.60;;;;;;5052979;28;20057;-63
2021/06/26 07:36:57;;;;;;;39.57;34.73;;;19.20;88.20;;;;;;5052848;28;20429;-64
2021/06/26 07:39:23;;;;;;;42.53;36.23;;;19.20;88.00;;;;;;5053270;28;20045;-63
2021/06/26 07:41:48;;;;;;;41.57;37.17;;;19.30;88.20;;;;;;5051865;28;20410;-64
2021/06/26 07:44:14;;;;;;;40.60;36.20;;;19.30;88.30;;;;;;5052058;28;20199;-63
2021/06/26 07:46:40;;;;;;;41.10;36.53;;;19.30;88.20;;;;;;5051698;28;20056;-64
2021/06/26 07:49:05;;;;;;;42.27;37.43;;;19.40;88.10;;;;;;5051330;28;20049;-63
2021/06/26 07:51:31;;;;;;;39.67;35.40;;;19.40;87.70;;;;;;5051715;28;20138;-63
2021/06/26 07:53:57;;;;;;;38.73;34.43;;;19.40;87.70;;;;;;5053011;28;20052;-64
2021/06/26 07:56:22;;;;;;;40.60;36.33;;;19.50;87.80;;;;;;5051671;28;20064;-64
2021/06/26 07:58:48;;;;;;;39.90;32.87;;;19.50;87.60;;;;;;5052527;28;20069;-65
2021/06/26 08:01:14;;;;;;;38.23;34.23;;;19.50;87.10;;;;;;5052530;28;20439;-65
2021/06/26 08:03:40;;;;;;;39.47;34.23;;;19.60;86.80;;;;;;5052214;28;20190;-64
2021/06/26 08:06:06;;;;;;;39.57;35.27;;;19.60;86.70;;;;;;5053156;28;20473;-64
2021/06/26 08:08:31;;;;;;;39.03;34.63;;;19.60;86.60;;;;;;5053289;28;20056;-64
2021/06/26 08:10:57;;;;;;;40.87;34.87;;;19.60;86.10;;;;;;5052127;28;20079;-65
2021/06/26 08:13:24;;;;;;;39.87;35.33;;;19.70;86.00;;;;;;5051906;28;20049;-64
2021/06/26 08:15:50;;;;;;;41.50;36.10;;;19.80;85.90;;;;;;5052876;28;20077;-64
2021/06/26 08:18:16;;;;;;;40.00;34.23;;;19.80;85.70;;;;;;5051563;28;20555;-64
2021/06/26 08:20:43;;;;;;;38.73;33.33;;;19.90;85.30;;;;;;5051489;28;20082;-64
2021/06/26 08:23:10;;;;;;;36.67;32.77;;;20.00;85.20;;;;;;5051591;28;20055;-64
2021/06/26 08:25:35;;;;;;;37.03;33.13;;;19.90;84.90;;;;;;5051418;28;20132;-64
2021/06/26 08:28:01;;;;;;;39.03;32.67;;;20.00;84.20;;;;;;5051957;28;20132;-64
2021/06/26 08:30:27;;;;;;;35.87;30.47;;;20.00;84.00;;;;;;5052382;28;20053;-63
2021/06/26 08:32:53;;;;;;;37.67;33.60;;;20.00;84.20;;;;;;5051782;28;20049;-64
2021/06/26 08:35:19;;;;;;;36.27;32.30;;;20.10;84.10;;;;;;5051970;28;20106;-64
2021/06/26 08:37:47;;;;;;;32.83;29.03;;;20.10;83.80;;;;;;5051325;28;20055;-64
2021/06/26 08:40:14;;;;;;;30.83;26.60;;;20.10;83.40;;;;;;5051809;28;20083;-64
2021/06/26 08:42:40;;;;;;;30.63;27.30;;;20.10;83.30;;;;;;5051858;28;20052;-64
2021/06/26 08:45:12;;;;;;;36.20;32.30;;;20.10;83.50;;;;;;5043932;28;20061;-63
2021/06/26 08:47:39;;;;;;;30.70;26.57;;;20.20;83.90;;;;;;5045717;28;20040;-64
2021/06/26 08:50:05;;;;;;;32.43;28.93;;;20.30;83.80;;;;;;5050644;28;20080;-64
2021/06/26 08:52:32;;;;;;;30.63;27.30;;;20.30;84.10;;;;;;5049400;28;20045;-64
2021/06/26 08:54:57;;;;;;;33.67;30.07;;;20.40;83.80;;;;;;5049673;28;20068;-64
2021/06/26 08:57:31;;;;;;;32.33;28.83;;;20.40;83.30;;;;;;5051066;28;20095;-64
2021/06/26 08:59:58;;;;;;;27.13;24.00;;;20.50;82.60;;;;;;5050877;28;20099;-64
2021/06/26 09:02:27;;;;;;;27.30;24.43;;;20.50;83.00;;;;;;5051559;28;20053;-64
2021/06/26 09:04:53;;;;;;;28.77;25.53;;;20.50;81.20;;;;;;5051864;28;20075;-64
2021/06/26 09:07:48;;;;;;;29.97;25.73;;;20.50;81.00;;;;;;5050820;28;20126;-64
2021/06/26 09:10:22;;;;;;;28.27;24.67;;;20.60;80.60;;;;;;5033848;28;20064;-64
2021/06/26 09:12:50;;;;;;;23.23;20.83;;;20.60;80.40;;;;;;5051901;28;20123;-63
2021/06/26 09:15:28;;;;;;;20.57;18.37;;;20.60;80.40;;;;;;5051100;28;20359;-64
2021/06/26 09:17:57;;;;;;;17.50;14.87;;;20.70;79.90;;;;;;5051635;28;20525;-64
2021/06/26 09:20:38;;;;;;;12.03;10.47;;;20.80;79.10;;;;;;5050710;28;20049;-64
2021/06/26 09:23:05;;;;;;;12.77;11.48;;;20.90;78.10;;;;;;5051493;28;20081;-64
2021/06/26 09:25:34;;;;;;;16.58;14.63;;;20.90;78.40;;;;;;5051560;28;20049;-64
2021/06/26 09:28:03;;;;;;;20.33;18.30;;;21.00;78.30;;;;;;5050523;28;20136;-64
2021/06/26 09:30:36;;;;;;;22.92;20.60;;;21.00;78.20;;;;;;5051072;28;20048;-64
2021/06/26 09:33:12;;;;;;;22.63;20.23;;;21.00;77.60;;;;;;5051172;28;20056;-64
2021/06/26 09:35:39;;;;;;;19.77;17.80;;;21.00;77.30;;;;;;5050684;28;20416;-64
2021/06/26 09:38:07;;;;;;;18.27;15.23;;;21.10;77.40;;;;;;5051020;28;20052;-64
2021/06/26 09:40:32;;;;;;;21.17;18.90;;;21.20;76.90;;;;;;5051387;28;20064;-63
2021/06/26 09:42:58;;;;;;;23.05;20.67;;;21.20;77.10;;;;;;5050443;28;20045;-64
2021/06/26 09:45:24;;;;;;;18.48;15.88;;;21.30;76.80;;;;;;5051184;28;20064;-64
2021/06/26 09:47:50;;;;;;;15.85;13.45;;;21.50;75.40;;;;;;5051448;28;20047;-64
2021/06/26 09:50:23;;;;;;;16.77;14.93;;;21.70;74.50;;;;;;5050193;28;20072;-64
2021/06/26 09:52:53;;;;;;;15.55;14.02;;;21.80;74.20;;;;;;5051080;28;20453;-64
2021/06/26 09:55:19;;;;;;;14.05;11.88;;;21.90;73.80;;;;;;5050119;28;20156;-64
2021/06/26 09:57:46;;;;;;;10.82;7.45;;;22.00;73.10;;;;;;5050887;28;20168;-64
2021/06/26 10:00:16;;;;;;;9.50;7.60;;;22.10;72.60;;;;;;5050699;28;20053;-64
2021/06/26 10:02:43;;;;;;;9.02;6.47;;;22.10;71.50;;;;;;5050149;28;20095;-64
2021/06/26 10:05:12;;;;;;;6.28;5.03;;;22.20;70.70;;;;;;5050628;28;20044;-64
2021/06/26 10:07:39;;;;;;;5.50;3.95;;;22.20;70.40;;;;;;5050813;28;20055;-64
2021/06/26 10:10:06;;;;;;;12.48;10.90;;;22.20;70.50;;;;;;5049512;28;20056;-64
2021/06/26 10:12:35;;;;;;;14.55;12.32;;;22.20;70.60;;;;;;5050534;28;20049;-64
2021/06/26 10:15:01;;;;;;;15.68;13.93;;;22.10;71.20;;;;;;5050589;28;20071;-64
2021/06/26 10:17:28;;;;;;;15.13;13.52;;;22.10;71.20;;;;;;5050133;28;20060;-65
2021/06/26 10:19:55;;;;;;;14.85;13.35;;;22.20;70.80;;;;;;5050983;28;20049;-64
2021/06/26 10:22:22;;;;;;;14.50;12.82;;;22.20;71.00;;;;;;5051614;28;20102;-64
2021/06/26 10:24:49;;;;;;;15.73;14.13;;;22.20;70.70;;;;;;5053963;28;20049;-64
2021/06/26 10:27:22;;;;;;;15.25;13.55;;;22.20;70.20;;;;;;5054275;28;20178;-65
2021/06/26 10:29:49;;;;;;;12.68;10.93;;;22.30;70.40;;;;;;5054905;28;20049;-64
2021/06/26 10:32:17;;;;;;;13.23;11.85;;;22.30;70.80;;;;;;5053868;28;20049;-64
2021/06/26 10:34:44;;;;;;;12.90;10.93;;;22.40;70.50;;;;;;5054755;28;20465;-65
2021/06/26 10:37:18;;;;;;;11.98;10.65;;;22.50;70.30;;;;;;5054294;28;20456;-64
2021/06/26 10:39:45;;;;;;;12.07;10.70;;;22.60;69.80;;;;;;5054977;28;20409;-64
2021/06/26 10:42:18;;;;;;;12.93;11.60;;;22.60;69.50;;;;;;5054482;28;20132;-64
2021/06/26 10:44:50;;;;;;;12.88;11.57;;;22.60;69.50;;;;;;5053546;28;20530;-64
2021/06/26 10:47:18;;;;;;;14.65;13.02;;;22.60;69.00;;;;;;5054237;28;20079;-65
2021/06/26 10:49:44;;;;;;;13.57;11.90;;;22.60;68.80;;;;;;5054091;28;20136;-65
2021/06/26 10:52:18;;;;;;;12.88;11.45;;;22.60;68.90;;;;;;5053694;28;20508;-65
2021/06/26 10:54:59;;;;;;;12.27;11.07;;;22.50;69.40;;;;;;5054561;28;20053;-65
2021/06/26 10:57:26;;;;;;;11.25;10.13;;;22.60;68.40;;;;;;5054456;28;20041;-65
2021/06/26 10:59:56;;;;;;;13.77;12.32;;;22.60;69.30;;;;;;5053590;28;20118;-65
2021/06/26 11:02:22;;;;;;;12.25;10.95;;;22.60;68.90;;;;;;5053898;28;20049;-65
2021/06/26 11:04:48;;;;;;;12.88;11.40;;;22.60;69.10;;;;;;5053946;28;20528;-64
2021/06/26 11:07:15;;;;;;;12.77;11.43;;;22.60;68.80;;;;;;5052950;28;20048;-65
2021/06/26 11:09:46;;;;;;;13.88;12.48;;;22.70;68.40;;;;;;5054183;28;20053;-64
2021/06/26 11:12:14;;;;;;;12.80;11.20;;;22.80;67.70;;;;;;5053704;28;20084;-64
2021/06/26 11:14:51;;;;;;;13.05;11.65;;;22.90;67.90;;;;;;5053160;28;20041;-65
2021/06/26 11:17:17;;;;;;;14.93;12.20;;;23.00;68.20;;;;;;5053769;28;20049;-65
2021/06/26 11:19:43;;;;;;;13.18;11.75;;;22.90;68.10;;;;;;5053410;28;20060;-65
2021/06/26 11:22:08;;;;;;;12.10;10.80;;;22.90;68.20;;;;;;5053517;28;20363;-64
2021/06/26 11:24:44;;;;;;;11.02;8.98;;;22.90;67.30;;;;;;5053815;28;20056;-65
2021/06/26 11:27:13;;;;;;;12.43;10.43;;;22.90;67.70;;;;;;5052352;28;20604;-65
2021/06/26 11:29:41;;;;;;;10.25;9.25;;;22.90;67.50;;;;;;5053265;28;20049;-65
2021/06/26 11:32:25;;;;;;;12.52;10.35;;;22.90;67.80;;;;;;5053299;28;20072;-65
2021/06/26 11:35:00;;;;;;;11.02;9.88;;;23.00;67.60;;;;;;5052521;28;20194;-64
2021/06/26 11:37:58;;;;;;;12.88;9.85;;;22.90;67.40;;;;;;5053491;28;20075;-65
2021/06/26 11:40:26;;;;;;;9.32;8.43;;;22.90;67.60;;;;;;5009684;28;20056;-65
2021/06/26 11:42:59;;;;;;;13.52;9.82;;;22.90;67.10;;;;;;5052558;28;20119;-66
2021/06/26 11:45:26;;;;;;;9.27;7.78;;;22.80;66.70;;;;;;5053559;28;20079;-65
2021/06/26 11:48:09;;;;;;;8.23;7.38;;;22.90;66.60;;;;;;5052503;28;20049;-65
2021/06/26 11:50:40;;;;;;;9.10;8.10;;;22.90;66.40;;;;;;5053495;28;20132;-64
2021/06/26 11:53:09;;;;;;;8.07;6.38;;;23.00;66.00;;;;;;5052910;28;20494;-64
2021/06/26 11:55:40;;;;;;;8.68;6.35;;;23.00;66.40;;;;;;5052536;28;20103;-64
2021/06/26 11:58:06;;;;;;;8.55;7.68;;;23.00;66.60;;;;;;5052981;28;20049;-64
2021/06/26 12:00:32;;;;;;;8.32;6.85;;;23.00;66.00;;;;;;5053015;28;20045;-64
2021/06/26 12:02:58;;;;;;;10.38;8.55;;;23.10;66.20;;;;;;5052130;28;20061;-64
2021/06/26 12:05:23;;;;;;;10.25;7.35;;;23.10;65.80;;;;;;5052930;28;20075;-64
2021/06/26 12:07:50;;;;;;;7.72;6.07;;;23.20;64.90;;;;;;5052936;28;20056;-64
2021/06/26 12:10:20;;;;;;;6.30;5.70;;;23.20;64.50;;;;;;5051814;28;20083;-65
2021/06/26 12:12:46;;;;;;;7.22;6.40;;;23.20;64.30;;;;;;5052762;28;20052;-65
2021/06/26 12:15:12;;;;;;;8.65;6.28;;;23.30;64.50;;;;;;5052346;28;20163;-65
2021/06/26 12:17:39;;;;;;;7.65;5.68;;;23.40;64.20;;;;;;5052243;28;20052;-65
2021/06/26 12:20:11;;;;;;;5.93;5.30;;;23.50;63.90;;;;;;5052508;28;20083;-65
2021/06/26 12:22:37;;;;;;;5.30;4.32;;;23.50;62.40;;;;;;5052612;28;20055;-64
2021/06/26 12:25:06;;;;;;;8.45;6.13;;;23.50;62.60;;;;;;5051879;28;20579;-65
2021/06/26 12:27:31;;;;;;;7.78;6.07;;;23.50;62.50;;;;;;5052517;28;20094;-65